Terminal Aerodrome Forecast
Issued by NWS

Home | Current Version | Previous Version | Graphics & Text | Print | Product List | Glossary On
Versions: 1 2 3 4 5 6 7 8 9 10 11 12 13 14 15 16 17 18 19 20 21 22 23
000
FTUS43 KMPX 302300
TAFRWF
TAF
KRWF 302339Z 0100/0124 13015G20KT P6SM VCSH SCT060 BKN100
     FM010400 15012KT 6SM BR OVC009
     FM010800 15010KT 3SM BR OVC003
     FM011600 18008KT P6SM OVC012
     FM012000 20006KT P6SM OVC030=

USA.gov is the U.S. government's official web portal to all federal, state and local government web resources and services.